Time;durP1;ratioP1;P1;durP2;ratioP2;P2;SDS_P1;SDS_P2;PMS_P1;PMS_P2;Temp;Humidity;BMP_temperature;BMP_pressure;BME280_temperature;BME280_humidity;BME280_pressure;Samples;Min_cycle;Max_cycle;Signal;HPM_P1;HPM_P2
2023/05/28 00:00:19;;;;;;;5.43;2.17;;;;;;;9.98;100.00;102145.69;6220741;23;20508;-84
2023/05/28 00:02:44;;;;;;;3.30;1.60;;;;;;;9.91;100.00;102133.78;6220461;23;20015;-84
2023/05/28 00:05:10;;;;;;;2.63;1.52;;;;;;;9.92;100.00;102135.47;6220510;23;20008;-84
2023/05/28 00:07:36;;;;;;;3.28;1.60;;;;;;;9.87;100.00;102135.91;6220446;23;20031;-84
2023/05/28 00:10:02;;;;;;;3.33;1.65;;;;;;;9.83;100.00;102137.16;6220770;23;20011;-84
2023/05/28 00:12:28;;;;;;;3.60;2.05;;;;;;;9.82;100.00;102137.31;6220668;23;20008;-84
2023/05/28 00:14:54;;;;;;;4.60;1.95;;;;;;;9.74;100.00;102139.81;6245726;23;20451;-85
2023/05/28 00:17:20;;;;;;;5.78;1.80;;;;;;;9.68;100.00;102135.81;6220233;23;20004;-85
2023/05/28 00:19:46;;;;;;;5.68;1.80;;;;;;;9.61;100.00;102135.53;6245483;23;20329;-86
2023/05/28 00:22:11;;;;;;;2.88;1.92;;;;;;;9.56;100.00;102135.09;6220191;23;20011;-84
2023/05/28 00:24:37;;;;;;;2.40;1.63;;;;;;;9.55;100.00;102137.91;6245489;23;20000;-85
2023/05/28 00:27:03;;;;;;;4.00;1.85;;;;;;;9.49;100.00;102133.09;6220102;23;20023;-87
2023/05/28 00:29:29;;;;;;;3.20;1.75;;;;;;;9.42;100.00;102127.38;6245309;23;20004;-84
2023/05/28 00:31:56;;;;;;;3.40;1.73;;;;;;;9.45;100.00;102132.50;6220355;23;20332;-83
2023/05/28 00:34:24;;;;;;;2.83;1.92;;;;;;;9.38;100.00;102131.34;6195844;23;20050;-85
2023/05/28 00:36:50;;;;;;;6.22;1.85;;;;;;;9.35;100.00;102134.31;6245333;23;20050;-84
2023/05/28 00:39:19;;;;;;;3.13;1.77;;;;;;;9.31;100.00;102138.22;6245746;23;20008;-83
2023/05/28 00:41:45;;;;;;;3.78;1.90;;;;;;;9.21;100.00;102140.88;6195779;23;20004;-84
2023/05/28 00:44:11;;;;;;;2.88;1.58;;;;;;;9.12;100.00;102128.25;6195057;23;20020;-87
2023/05/28 00:46:37;;;;;;;4.63;1.95;;;;;;;9.01;100.00;102124.66;6219978;23;20019;-85
2023/05/28 00:49:03;;;;;;;4.22;1.73;;;;;;;8.87;100.00;102121.47;6195283;23;20010;-85
2023/05/28 00:51:29;;;;;;;2.90;1.90;;;;;;;8.74;100.00;102135.91;6220193;23;20082;-84
2023/05/28 00:53:54;;;;;;;4.47;1.73;;;;;;;8.60;100.00;102122.84;6244873;23;20012;-84
2023/05/28 00:56:22;;;;;;;4.53;1.70;;;;;;;8.38;100.00;102108.50;6219891;23;20010;-85
2023/05/28 00:58:48;;;;;;;4.30;1.65;;;;;;;8.39;100.00;102125.47;6245247;23;20328;-84
2023/05/28 01:01:14;;;;;;;6.05;2.30;;;;;;;8.33;100.00;102124.09;6195053;23;20150;-84
2023/05/28 01:03:40;;;;;;;5.13;1.80;;;;;;;8.29;100.00;102128.03;6245271;23;20035;-85
2023/05/28 01:06:09;;;;;;;3.13;1.58;;;;;;;8.34;100.00;102133.88;6219926;23;20011;-88
2023/05/28 01:08:37;;;;;;;3.22;1.95;;;;;;;8.34;100.00;102135.69;6220637;23;20004;-85
2023/05/28 01:11:04;;;;;;;2.83;1.80;;;;;;;8.28;100.00;102126.34;6195878;23;20027;-85
2023/05/28 01:13:30;;;;;;;2.92;1.98;;;;;;;8.32;100.00;102122.41;6170466;23;20073;-83
2023/05/28 01:15:56;;;;;;;2.78;1.60;;;;;;;8.37;100.00;102120.22;6220049;23;20098;-84
2023/05/28 01:18:22;;;;;;;3.30;2.10;;;;;;;8.41;100.00;102131.53;6246778;22;20572;-88
2023/05/28 01:20:48;;;;;;;2.58;1.60;;;;;;;8.35;100.00;102130.19;6219692;23;20011;-90
2023/05/28 01:23:18;;;;;;;4.43;1.60;;;;;;;8.34;100.00;102123.16;6220217;23;20335;-86
2023/05/28 01:25:45;;;;;;;4.20;2.10;;;;;;;8.31;100.00;102119.88;6194907;23;20004;-86
2023/05/28 01:28:14;;;;;;;3.47;1.83;;;;;;;8.35;100.00;102127.50;6194994;23;20031;-86
2023/05/28 01:30:43;;;;;;;3.60;1.65;;;;;;;8.31;100.00;102123.41;6220609;23;20087;-85
2023/05/28 01:33:11;;;;;;;3.00;1.67;;;;;;;8.34;100.00;102124.97;6246690;23;20070;-89
2023/05/28 01:35:40;;;;;;;3.40;1.77;;;;;;;8.30;100.00;102127.03;6245355;23;20033;-86
2023/05/28 01:38:06;;;;;;;2.85;1.75;;;;;;;8.23;100.00;102104.44;6245220;23;20428;-85
2023/05/28 01:40:33;;;;;;;3.72;1.90;;;;;;;8.33;100.00;102117.91;6170171;23;20424;-84
2023/05/28 01:42:59;;;;;;;4.50;1.60;;;;;;;8.42;100.00;102129.75;6244898;23;20000;-87
2023/05/28 01:45:25;;;;;;;4.28;2.03;;;;;;;8.35;100.00;102111.44;6245150;23;20071;-87
2023/05/28 01:47:51;;;;;;;4.28;2.38;;;;;;;8.47;100.00;102119.47;6245089;23;20094;-86
2023/05/28 01:50:17;;;;;;;4.40;1.70;;;;;;;8.48;100.00;102105.09;6194711;23;20004;-84
2023/05/28 01:52:44;;;;;;;6.20;2.20;;;;;;;8.56;100.00;102110.66;6219747;23;20015;-85
2023/05/28 01:55:11;;;;;;;4.68;1.75;;;;;;;8.48;100.00;102081.81;6244676;23;20008;-85
2023/05/28 01:57:37;;;;;;;3.83;1.83;;;;;;;8.79;100.00;102106.88;6244641;23;20340;-85
2023/05/28 02:00:04;;;;;;;2.60;1.60;;;;;;;8.89;100.00;102098.91;6194564;23;20085;-86
2023/05/28 02:02:30;;;;;;;3.28;2.00;;;;;;;9.14;100.00;102118.22;6219556;23;20337;-84
2023/05/28 02:04:55;;;;;;;3.53;2.03;;;;;;;9.36;100.00;102119.88;6219734;23;20000;-86
2023/05/28 02:07:21;;;;;;;3.25;1.70;;;;;;;9.48;100.00;102105.38;6194850;23;20450;-85
2023/05/28 02:09:47;;;;;;;4.63;1.55;;;;;;;9.64;100.00;102104.88;6194837;23;20010;-85
2023/05/28 02:12:13;;;;;;;3.40;1.75;;;;;;;9.88;100.00;102128.69;6194628;23;20009;-84
2023/05/28 02:14:38;;;;;;;3.55;1.70;;;;;;;9.84;100.00;102108.44;6245049;23;20008;-85
2023/05/28 02:17:04;;;;;;;2.53;1.45;;;;;;;10.03;100.00;102129.13;6245173;23;20039;-85
2023/05/28 02:19:32;;;;;;;3.17;1.35;;;;;;;10.13;100.00;102128.19;6246752;23;20004;-86
2023/05/28 02:21:58;;;;;;;3.00;1.70;;;;;;;10.25;100.00;102122.69;6248373;22;20458;-87
2023/05/28 02:24:23;;;;;;;3.50;1.75;;;;;;;10.43;100.00;102128.25;6221961;23;20004;-85
2023/05/28 02:26:50;;;;;;;3.42;1.95;;;;;;;10.50;100.00;102121.28;6195904;23;20039;-86
2023/05/28 02:29:16;;;;;;;3.60;1.80;;;;;;;10.48;100.00;102105.31;6246956;23;20040;-84
2023/05/28 02:31:41;;;;;;;5.95;1.83;;;;;;;10.66;100.00;102129.63;6246777;23;20007;-86
2023/05/28 02:34:07;;;;;;;2.38;1.35;;;;;;;10.68;100.00;102114.19;6246916;23;20027;-86
2023/05/28 02:36:35;;;;;;;3.17;1.60;;;;;;;10.78;100.00;102127.66;6246834;23;20087;-86
2023/05/28 02:39:02;;;;;;;4.32;1.40;;;;;;;10.84;100.00;102118.97;6221921;23;20087;-85
2023/05/28 02:41:27;;;;;;;2.35;1.27;;;;;;;10.94;100.00;102113.59;6246407;23;20004;-85
2023/05/28 02:43:53;;;;;;;2.97;1.70;;;;;;;11.07;100.00;102122.19;6246973;23;20011;-86
2023/05/28 02:46:19;;;;;;;3.35;1.40;;;;;;;11.17;100.00;102124.88;6196452;23;20428;-85
2023/05/28 02:48:45;;;;;;;2.90;1.55;;;;;;;11.22;100.00;102118.06;6221641;23;20014;-84
2023/05/28 02:51:11;;;;;;;2.33;1.48;;;;;;;11.34;100.00;102125.94;6246639;23;20007;-86
2023/05/28 02:53:37;;;;;;;3.72;1.90;;;;;;;11.44;100.00;102129.47;6246516;23;20452;-86
2023/05/28 02:56:02;;;;;;;4.43;1.60;;;;;;;11.47;100.00;102128.31;6221022;23;20007;-83
2023/05/28 02:58:30;;;;;;;4.18;1.98;;;;;;;11.48;100.00;102127.31;6248218;22;20000;-83
2023/05/28 03:00:56;;;;;;;1.88;1.13;;;;;;;11.51;100.00;102133.25;6248529;22;20448;-86
2023/05/28 03:03:22;;;;;;;2.58;1.70;;;;;;;11.58;100.00;102134.34;6171790;23;20037;-84
2023/05/28 03:05:49;;;;;;;3.20;1.50;;;;;;;11.59;100.00;102127.09;6196135;23;20004;-85
2023/05/28 03:08:14;;;;;;;2.20;1.33;;;;;;;11.65;100.00;102137.31;6221271;23;20004;-86
2023/05/28 03:10:40;;;;;;;3.35;1.58;;;;;;;11.65;100.00;102135.44;6248079;23;20523;-85
2023/05/28 03:13:06;;;;;;;3.20;1.40;;;;;;;11.68;100.00;102136.16;6220866;23;20012;-85
2023/05/28 03:15:31;;;;;;;3.88;1.77;;;;;;;11.73;100.00;102141.94;6196357;23;20432;-85
2023/05/28 03:17:57;;;;;;;2.03;0.93;;;;;;;11.75;100.00;102145.31;6196258;23;20008;-85
2023/05/28 03:20:23;;;;;;;3.83;1.52;;;;;;;11.61;100.00;102117.03;6221237;23;20012;-85
2023/05/28 03:22:49;;;;;;;2.70;1.58;;;;;;;11.52;100.00;102096.41;6196433;23;20425;-86
2023/05/28 03:25:15;;;;;;;4.38;1.83;;;;;;;11.68;100.00;102120.00;6221301;23;20004;-85
2023/05/28 03:27:40;;;;;;;3.67;1.20;;;;;;;11.60;100.00;102123.44;6171373;23;20017;-87
2023/05/28 03:30:09;;;;;;;1.98;1.73;;;;;;;11.50;100.00;102122.63;6220629;23;20062;-86
2023/05/28 03:32:34;;;;;;;4.38;2.13;;;;;;;11.43;100.00;102112.44;6196478;23;20428;-89
2023/05/28 03:35:00;;;;;;;4.72;2.45;;;;;;;11.50;100.00;102133.41;6195846;23;20071;-85
2023/05/28 03:37:26;;;;;;;2.60;1.70;;;;;;;11.37;100.00;102118.41;6220837;23;20008;-87
2023/05/28 03:39:53;;;;;;;3.30;1.85;;;;;;;11.35;100.00;102108.78;6220883;23;20420;-85
2023/05/28 03:42:19;;;;;;;3.80;2.13;;;;;;;11.38;100.00;102119.28;6171298;23;20087;-84
2023/05/28 03:44:45;;;;;;;2.65;1.58;;;;;;;11.21;100.00;102097.50;6196125;23;20007;-86
2023/05/28 03:47:12;;;;;;;2.92;1.67;;;;;;;11.32;100.00;102128.78;6196142;23;19997;-86
2023/05/28 03:49:38;;;;;;;2.88;1.85;;;;;;;11.36;100.00;102122.09;6196218;23;20424;-88
2023/05/28 03:52:04;;;;;;;4.47;2.42;;;;;;;11.36;100.00;102127.50;6171305;23;20011;-87
2023/05/28 03:54:31;;;;;;;3.33;1.83;;;;;;;11.32;100.00;102119.84;6196248;23;20027;-85
2023/05/28 03:56:57;;;;;;;2.50;1.75;;;;;;;11.13;100.00;102085.78;6171424;23;20079;-85
2023/05/28 03:59:22;;;;;;;2.97;1.80;;;;;;;11.16;100.00;102105.16;6247739;23;20416;-85
2023/05/28 04:01:48;;;;;;;5.25;1.90;;;;;;;11.12;100.00;102106.47;6196503;23;20015;-87
2023/05/28 04:04:13;;;;;;;2.55;1.75;;;;;;;11.09;100.00;102114.84;6221304;23;20075;-84
2023/05/28 04:06:39;;;;;;;4.68;2.00;;;;;;;10.98;100.00;102107.78;6195810;23;20004;-84
2023/05/28 04:09:05;;;;;;;3.00;1.88;;;;;;;11.02;100.00;102121.78;6221073;23;20008;-86
2023/05/28 04:11:34;;;;;;;4.25;1.83;;;;;;;11.07;100.00;102118.66;6196169;23;20008;-87
2023/05/28 04:14:01;;;;;;;3.50;2.22;;;;;;;11.15;100.00;102124.16;6196623;23;20119;-84
2023/05/28 04:16:27;;;;;;;4.53;1.92;;;;;;;11.17;100.00;102119.50;6221067;23;20012;-86
2023/05/28 04:18:52;;;;;;;5.10;2.20;;;;;;;11.21;100.00;102124.41;6220917;23;20015;-85
2023/05/28 04:21:19;;;;;;;3.22;1.73;;;;;;;11.19;100.00;102120.16;6220880;23;20004;-86
2023/05/28 04:23:46;;;;;;;2.78;1.67;;;;;;;11.31;100.00;102132.47;6195885;23;20008;-85
2023/05/28 04:26:12;;;;;;;2.92;2.05;;;;;;;11.35;100.00;102123.13;6195774;23;20357;-87
2023/05/28 04:28:38;;;;;;;3.17;1.80;;;;;;;11.38;100.00;102130.06;6220549;23;20012;-84
2023/05/28 04:31:04;;;;;;;2.65;1.73;;;;;;;11.35;100.00;102114.16;6220855;23;20001;-85
2023/05/28 04:33:30;;;;;;;2.88;1.65;;;;;;;11.43;100.00;102130.44;6195872;23;20027;-85
2023/05/28 04:36:01;;;;;;;4.05;1.58;;;;;;;11.50;100.00;102144.16;6196689;23;20000;-84
2023/05/28 04:38:31;;;;;;;3.67;1.75;;;;;;;11.53;100.00;102151.94;6196883;23;20008;-85
2023/05/28 04:40:57;;;;;;;4.75;1.98;;;;;;;11.53;100.00;102143.88;6197896;23;20027;-84
2023/05/28 04:43:23;;;;;;;3.25;2.03;;;;;;;11.57;100.00;102156.91;6221198;23;20000;-84
2023/05/28 04:45:49;;;;;;;4.65;2.17;;;;;;;11.51;100.00;102146.72;6196408;23;20494;-84
2023/05/28 04:48:15;;;;;;;2.28;1.35;;;;;;;11.70;100.00;102161.97;6247706;23;20080;-83
2023/05/28 04:50:41;;;;;;;5.25;2.33;;;;;;;11.72;100.00;102162.63;6196039;23;20332;-84
2023/05/28 04:53:07;;;;;;;5.18;2.28;;;;;;;11.71;100.00;102152.03;6195068;23;20071;-87
2023/05/28 04:55:32;;;;;;;3.55;1.80;;;;;;;11.76;100.00;102165.91;6195686;23;20074;-84
2023/05/28 04:57:58;;;;;;;6.35;2.75;;;;;;;11.72;100.00;102153.72;6195775;23;20078;-85
2023/05/28 05:00:26;;;;;;;4.82;2.03;;;;;;;11.77;100.00;102163.03;6207497;23;20079;-86
2023/05/28 05:02:52;;;;;;;5.05;2.35;;;;;;;11.77;100.00;102144.16;6245904;23;20454;-84
2023/05/28 05:05:19;;;;;;;3.55;2.17;;;;;;;11.77;100.00;102146.03;6195668;23;20004;-88
2023/05/28 05:07:45;;;;;;;8.80;2.60;;;;;;;11.78;100.00;102153.97;6220786;23;20084;-84
2023/05/28 05:10:11;;;;;;;5.45;2.17;;;;;;;11.78;100.00;102156.66;6220127;23;20008;-83
2023/05/28 05:12:37;;;;;;;6.63;2.95;;;;;;;11.77;100.00;102154.09;6246890;22;20004;-83
2023/05/28 05:15:04;;;;;;;5.30;2.53;;;;;;;11.78;100.00;102151.28;6245308;23;20083;-83
2023/05/28 05:17:30;;;;;;;5.10;2.65;;;;;;;11.63;100.00;102133.91;6244984;23;20027;-84
2023/05/28 05:19:56;;;;;;;3.75;2.10;;;;;;;11.73;100.00;102161.66;6244965;23;20086;-84
2023/05/28 05:22:22;;;;;;;5.35;2.40;;;;;;;11.75;100.00;102159.66;6245023;23;20000;-85
2023/05/28 05:24:50;;;;;;;4.28;2.28;;;;;;;11.73;100.00;102156.25;6220009;23;20015;-84
2023/05/28 05:27:16;;;;;;;3.67;2.20;;;;;;;11.84;100.00;102169.53;6220676;23;20039;-84
2023/05/28 05:29:42;;;;;;;4.50;2.30;;;;;;;11.90;100.00;102162.72;6194938;23;20429;-84
2023/05/28 05:32:10;;;;;;;4.10;2.50;;;;;;;11.98;100.00;102167.38;6246963;22;20004;-86
2023/05/28 05:34:36;;;;;;;5.63;2.60;;;;;;;11.99;100.00;102161.84;6245304;23;20007;-85
2023/05/28 05:37:03;;;;;;;5.95;2.95;;;;;;;12.04;100.00;102169.44;6194862;23;20343;-84
2023/05/28 05:39:28;;;;;;;5.63;3.47;;;;;;;12.06;100.00;102159.38;6194899;23;20012;-86
2023/05/28 05:41:54;;;;;;;6.25;2.90;;;;;;;12.09;100.00;102164.44;6219776;23;20010;-87
2023/05/28 05:44:20;;;;;;;8.32;3.72;;;;;;;12.12;100.00;102168.69;6244894;23;20004;-86
2023/05/28 05:46:45;;;;;;;2.95;2.10;;;;;;;12.02;100.00;102155.28;6219463;23;20038;-85
2023/05/28 05:49:11;;;;;;;8.63;2.83;;;;;;;12.09;100.00;102162.63;6245010;23;20000;-86
2023/05/28 05:51:37;;;;;;;4.53;2.80;;;;;;;12.12;100.00;102166.00;6194468;23;20008;-85
2023/05/28 05:54:03;;;;;;;5.07;3.25;;;;;;;12.14;100.00;102170.25;6244889;23;20012;-87
2023/05/28 05:56:29;;;;;;;2.30;1.95;;;;;;;12.06;100.00;102170.16;6194597;23;20008;-86
2023/05/28 05:58:55;;;;;;;6.03;3.45;;;;;;;12.02;100.00;102176.88;6219597;23;20004;-87
2023/05/28 06:01:21;;;;;;;5.22;2.60;;;;;;;11.95;100.00;102173.06;6219741;23;20012;-84
2023/05/28 06:03:47;;;;;;;5.93;2.80;;;;;;;11.87;100.00;102168.41;6219320;23;20027;-88
2023/05/28 06:06:13;;;;;;;5.40;2.10;;;;;;;11.78;100.00;102177.38;6219246;23;20452;-87
2023/05/28 06:08:39;;;;;;;6.00;2.75;;;;;;;11.72;100.00;102183.34;6244096;23;20015;-86
2023/05/28 06:11:04;;;;;;;9.73;3.83;;;;;;;11.67;100.00;102173.03;6219194;23;20008;-84
2023/05/28 06:13:31;;;;;;;14.15;4.82;;;;;;;11.71;100.00;102179.81;6219885;23;20007;-84
2023/05/28 06:15:57;;;;;;;6.60;2.80;;;;;;;11.69;100.00;102180.94;6245037;23;20006;-86
2023/05/28 06:18:23;;;;;;;5.10;2.80;;;;;;;11.44;100.00;102145.63;6231904;23;20004;-86
2023/05/28 06:20:49;;;;;;;8.63;3.40;;;;;;;11.64;100.00;102176.88;6262566;23;20028;-85
2023/05/28 06:23:16;;;;;;;8.70;3.65;;;;;;;11.64;100.00;102178.69;6219739;23;20019;-87
2023/05/28 06:25:43;;;;;;;7.30;3.00;;;;;;;11.66;100.00;102187.47;6219084;23;20389;-88
2023/05/28 06:28:10;;;;;;;7.10;3.58;;;;;;;11.64;100.00;102184.97;6246301;22;19996;-85
2023/05/28 06:30:36;;;;;;;5.32;3.22;;;;;;;11.62;100.00;102181.56;6244403;23;20069;-84
2023/05/28 06:33:02;;;;;;;4.57;2.63;;;;;;;11.64;100.00;102182.25;6194480;23;20095;-86
2023/05/28 06:35:27;;;;;;;7.68;3.38;;;;;;;11.74;100.00;102186.75;6244641;23;20004;-85
2023/05/28 06:37:53;;;;;;;6.75;2.90;;;;;;;11.77;100.00;102165.72;6244218;23;20000;-88
2023/05/28 06:40:19;;;;;;;6.57;2.88;;;;;;;12.09;100.00;102195.00;6219368;23;20004;-83
2023/05/28 06:42:45;;;;;;;3.92;2.00;;;;;;;12.17;100.00;102188.84;6244289;23;20014;-85
2023/05/28 06:45:11;;;;;;;2.97;1.20;;;;;;;12.22;100.00;102194.59;6245376;23;20079;-85
2023/05/28 06:47:37;;;;;;;6.72;3.28;;;;;;;12.28;100.00;102198.56;6244365;23;20000;-88
2023/05/28 06:50:03;;;;;;;4.93;2.38;;;;;;;12.32;100.00;102200.78;6244254;23;20063;-86
2023/05/28 06:52:29;;;;;;;5.15;2.28;;;;;;;12.36;100.00;102195.09;6219049;23;20016;-84
2023/05/28 06:54:55;;;;;;;5.13;2.25;;;;;;;12.53;100.00;102207.75;6219599;23;20018;-85
2023/05/28 06:57:21;;;;;;;6.35;2.50;;;;;;;12.68;100.00;102208.06;6246244;22;20008;-89
2023/05/28 06:59:47;;;;;;;2.38;1.77;;;;;;;12.85;97.84;102211.75;6218865;23;20340;-87
2023/05/28 07:02:13;;;;;;;4.53;1.80;;;;;;;13.09;97.12;102208.41;6194015;23;20135;-86
2023/05/28 07:04:38;;;;;;;6.28;1.92;;;;;;;13.23;92.77;102191.66;6244879;23;20333;-85
2023/05/28 07:07:05;;;;;;;4.25;1.92;;;;;;;13.53;89.17;102208.41;6245847;23;20050;-85
2023/05/28 07:09:30;;;;;;;8.43;2.95;;;;;;;13.70;90.03;102207.47;6221039;23;20004;-89
2023/05/28 07:11:56;;;;;;;4.30;2.17;;;;;;;13.85;87.86;102203.19;6195957;23;20015;-86
2023/05/28 07:14:22;;;;;;;6.07;2.45;;;;;;;13.85;87.09;102178.00;6246389;23;20012;-89
2023/05/28 07:16:48;;;;;;;6.15;1.88;;;;;;;14.32;84.87;102220.78;6196223;23;20011;-85
2023/05/28 07:19:14;;;;;;;10.88;2.50;;;;;;;14.56;84.98;102222.72;6220688;23;20074;-87
2023/05/28 07:21:40;;;;;;;4.30;1.50;;;;;;;14.77;82.90;102227.66;6247436;22;20405;-84
2023/05/28 07:24:06;;;;;;;6.75;2.03;;;;;;;14.98;81.60;102229.88;6246061;23;20306;-84
2023/05/28 07:26:35;;;;;;;6.95;2.30;;;;;;;15.16;80.81;102241.38;6220712;23;20091;-87
2023/05/28 07:29:00;;;;;;;9.65;2.45;;;;;;;15.13;79.63;102232.72;6246135;23;20011;-87
2023/05/28 07:31:28;;;;;;;3.80;1.70;;;;;;;15.11;77.26;102238.34;6247948;22;20004;-86
2023/05/28 07:33:54;;;;;;;4.95;1.83;;;;;;;15.07;76.21;102234.25;6221051;23;20357;-89
2023/05/28 07:36:20;;;;;;;7.63;2.30;;;;;;;15.17;77.93;102225.97;6245814;23;20004;-85
2023/05/28 07:38:46;;;;;;;7.90;2.00;;;;;;;15.47;78.53;102243.38;6247894;22;20011;-84
2023/05/28 07:41:12;;;;;;;4.75;1.98;;;;;;;15.68;75.03;102241.97;6246151;23;20091;-84
2023/05/28 07:43:37;;;;;;;6.50;2.00;;;;;;;15.87;72.42;102243.47;6245940;23;20094;-84
2023/05/28 07:46:08;;;;;;;4.90;2.20;;;;;;;15.82;71.06;102225.00;6245962;23;20008;-85
2023/05/28 07:48:36;;;;;;;3.80;1.73;;;;;;;15.83;71.59;102238.41;6245952;23;20086;-85
2023/05/28 07:51:02;;;;;;;4.93;2.13;;;;;;;15.98;72.31;102234.97;6220312;23;19999;-85
2023/05/28 07:53:28;;;;;;;7.30;2.90;;;;;;;16.68;71.88;102250.38;6245918;23;20023;-84
2023/05/28 07:55:58;;;;;;;3.60;1.52;;;;;;;16.73;68.44;102242.53;6245529;23;20379;-85
2023/05/28 07:58:24;;;;;;;12.98;2.97;;;;;;;17.74;64.57;102254.09;6245449;23;20001;-85
2023/05/28 08:00:50;;;;;;;7.03;1.80;;;;;;;18.09;62.53;102238.06;6245923;23;20012;-85
2023/05/28 08:03:15;;;;;;;10.57;3.38;;;;;;;19.21;61.05;102260.28;6220522;23;20016;-85
2023/05/28 08:05:41;;;;;;;6.28;2.33;;;;;;;19.00;58.02;102254.81;6245781;23;20079;-84
2023/05/28 08:08:07;;;;;;;6.20;2.38;;;;;;;19.35;56.31;102257.66;6245840;23;20003;-83
2023/05/28 08:10:32;;;;;;;3.13;2.42;;;;;;;20.25;55.83;102239.53;6220665;23;20012;-84
2023/05/28 08:12:58;;;;;;;5.35;2.20;;;;;;;19.98;51.64;102253.06;6245037;23;20310;-83
2023/05/28 08:15:23;;;;;;;5.30;2.20;;;;;;;19.73;52.29;102250.81;6220365;23;20048;-79
2023/05/28 08:17:49;;;;;;;8.13;2.40;;;;;;;20.80;52.51;102229.41;6247210;22;20000;-79
2023/05/28 08:20:15;;;;;;;7.82;2.90;;;;;;;20.62;50.96;102240.94;6220377;23;20440;-78
2023/05/28 08:22:42;;;;;;;5.13;1.90;;;;;;;20.72;50.75;102248.72;6245768;23;20004;-78
2023/05/28 08:25:08;;;;;;;5.65;2.55;;;;;;;20.41;49.47;102230.97;6247036;22;20026;-78
2023/05/28 08:27:35;;;;;;;5.43;2.42;;;;;;;21.26;47.74;102248.56;6195362;23;20429;-80
2023/05/28 08:30:01;;;;;;;8.20;2.10;;;;;;;22.30;44.99;102246.06;6245681;23;20078;-78
2023/05/28 08:32:27;;;;;;;8.32;3.47;;;;;;;22.93;42.89;102224.16;6245454;23;20334;-78
2023/05/28 08:34:52;;;;;;;4.78;1.92;;;;;;;24.21;41.92;102254.84;6220066;23;20004;-78
2023/05/28 08:37:18;;;;;;;5.82;2.00;;;;;;;24.52;37.16;102227.16;6245111;23;20079;-78
2023/05/28 08:39:44;;;;;;;6.43;2.67;;;;;;;24.53;36.27;102250.84;6246608;22;20347;-79
2023/05/28 08:42:09;;;;;;;8.63;2.33;;;;;;;23.52;37.89;102246.69;6245590;23;20004;-78
2023/05/28 08:44:35;;;;;;;6.38;2.03;;;;;;;21.81;41.61;102245.59;6245229;23;20087;-78
2023/05/28 08:47:01;;;;;;;7.07;2.20;;;;;;;20.46;44.55;102247.59;6246638;22;20010;-77
2023/05/28 08:49:35;;;;;;;6.55;2.10;;;;;;;21.34;44.80;102244.78;6195198;23;20372;-80
2023/05/28 08:52:02;;;;;;;5.18;2.00;;;;;;;23.04;40.84;102245.41;6245516;23;20372;-79
2023/05/28 08:54:29;;;;;;;4.55;1.80;;;;;;;23.92;37.90;102240.81;6245499;23;19996;-79
2023/05/28 08:56:55;;;;;;;4.18;2.17;;;;;;;23.98;38.59;102242.66;6245484;23;20000;-79
2023/05/28 08:59:20;;;;;;;5.93;2.35;;;;;;;24.09;34.50;102244.63;6245464;23;20047;-78
2023/05/28 09:01:46;;;;;;;8.00;2.38;;;;;;;23.58;35.90;102243.06;6246699;23;20008;-79
2023/05/28 09:04:12;;;;;;;5.22;2.17;;;;;;;23.88;35.80;102232.19;6219322;23;20000;-79
2023/05/28 09:06:38;;;;;;;4.80;2.17;;;;;;;24.30;34.82;102236.97;6220186;23;20008;-78
2023/05/28 09:09:07;;;;;;;3.38;1.65;;;;;;;24.37;35.55;102237.69;6195230;23;20027;-78
2023/05/28 09:11:33;;;;;;;6.93;2.58;;;;;;;24.43;36.77;102234.03;6220637;23;20007;-79
2023/05/28 09:14:08;;;;;;;4.70;2.08;;;;;;;24.66;34.73;102216.78;6170116;23;20015;-79
2023/05/28 09:16:33;;;;;;;5.53;2.40;;;;;;;24.35;34.82;102215.13;6194755;23;20004;-78
2023/05/28 09:19:04;;;;;;;3.03;1.63;;;;;;;24.48;36.20;102211.38;6219811;23;20420;-78
2023/05/28 09:21:30;;;;;;;7.15;2.10;;;;;;;25.11;34.08;102226.47;6194657;23;20000;-78
2023/05/28 09:23:55;;;;;;;5.38;1.77;;;;;;;25.11;35.29;102230.06;6170207;23;20007;-78
2023/05/28 09:26:21;;;;;;;6.13;2.05;;;;;;;24.74;33.49;102218.38;6219451;23;20015;-78
2023/05/28 09:28:49;;;;;;;6.25;1.95;;;;;;;24.68;34.75;102230.31;6219288;23;20424;-77
2023/05/28 09:31:15;;;;;;;5.00;2.00;;;;;;;25.21;34.68;102219.31;6194852;23;20032;-79
2023/05/28 09:33:47;;;;;;;2.83;2.03;;;;;;;25.23;33.89;102230.09;6219622;23;20006;-80
2023/05/28 09:36:17;;;;;;;6.72;2.15;;;;;;;25.07;33.93;102236.28;6219642;23;20004;-78
2023/05/28 09:38:42;;;;;;;7.43;2.42;;;;;;;24.95;34.40;102239.88;6169617;23;20062;-78
2023/05/28 09:41:25;;;;;;;5.32;2.30;;;;;;;24.89;34.56;102234.44;6194333;23;20424;-78
2023/05/28 09:43:59;;;;;;;7.50;2.03;;;;;;;24.91;33.92;102235.91;6169734;23;20008;-78
2023/05/28 09:46:29;;;;;;;5.57;2.15;;;;;;;24.92;34.76;102221.06;6194389;23;20058;-78
2023/05/28 09:48:55;;;;;;;6.43;2.63;;;;;;;24.93;34.26;102222.75;6219155;23;20077;-78
2023/05/28 09:51:28;;;;;;;5.25;2.30;;;;;;;25.02;34.57;102228.72;6219554;23;20000;-79
2023/05/28 09:54:00;;;;;;;8.48;2.67;;;;;;;25.44;34.99;102225.94;6194473;23;20195;-78
2023/05/28 09:56:31;;;;;;;7.43;2.33;;;;;;;26.08;32.67;102228.72;6219163;23;20069;-79
2023/05/28 09:58:58;;;;;;;5.63;2.80;;;;;;;26.12;31.48;102234.56;6169754;23;20099;-77
2023/05/28 10:01:27;;;;;;;5.03;2.00;;;;;;;25.59;34.08;102239.19;6169419;23;20012;-78
2023/05/28 10:04:10;;;;;;;6.07;2.63;;;;;;;25.57;32.84;102224.84;6219390;23;20081;-78
2023/05/28 10:06:38;;;;;;;6.03;2.40;;;;;;;25.81;34.87;102232.00;6219383;23;20004;-79
2023/05/28 10:09:04;;;;;;;7.25;2.55;;;;;;;27.21;32.36;102247.41;6194041;23;20336;-78
2023/05/28 10:11:31;;;;;;;7.32;2.50;;;;;;;25.28;33.46;102241.25;6194266;23;20065;-78
2023/05/28 10:13:57;;;;;;;6.13;2.25;;;;;;;26.07;32.58;102244.44;6169393;23;20091;-78
2023/05/28 10:16:23;;;;;;;7.00;2.83;;;;;;;24.33;35.37;102229.09;6194011;23;20091;-79
2023/05/28 10:18:49;;;;;;;4.15;2.13;;;;;;;23.67;35.78;102233.44;6193978;23;20011;-78
2023/05/28 10:21:15;;;;;;;7.78;3.10;;;;;;;25.27;35.44;102242.34;6218888;23;20000;-79
2023/05/28 10:23:42;;;;;;;6.28;2.63;;;;;;;23.81;35.20;102244.31;6193771;23;20375;-78
2023/05/28 10:26:08;;;;;;;10.05;2.83;;;;;;;23.92;37.04;102227.94;6218796;23;20071;-78
2023/05/28 10:28:33;;;;;;;5.80;2.00;;;;;;;23.04;36.30;102230.88;6193783;23;20454;-78
2023/05/28 10:31:02;;;;;;;6.15;2.35;;;;;;;25.12;34.33;102233.66;6218667;23;20079;-78
2023/05/28 10:33:27;;;;;;;7.35;2.30;;;;;;;24.77;35.29;102227.03;6218759;23;20000;-79
2023/05/28 10:35:55;;;;;;;7.35;3.13;;;;;;;26.09;36.10;102227.63;6218756;23;20011;-78
2023/05/28 10:38:22;;;;;;;4.25;2.45;;;;;;;27.54;29.86;102238.25;6219633;23;20004;-79
2023/05/28 10:40:48;;;;;;;3.85;1.83;;;;;;;26.40;30.63;102228.25;6221031;23;20004;-79
2023/05/28 10:43:45;;;;;;;6.18;2.28;;;;;;;23.98;36.30;102233.56;6221327;23;20027;-79
2023/05/28 10:46:22;;;;;;;4.65;1.88;;;;;;;23.59;36.93;102236.50;6171807;23;20016;-79
2023/05/28 10:49:11;;;;;;;5.57;2.38;;;;;;;22.46;37.97;102220.88;6247496;23;20428;-79
2023/05/28 10:51:52;;;;;;;4.93;2.28;;;;;;;23.89;37.85;102230.28;6171195;23;20012;-78
2023/05/28 10:54:30;;;;;;;5.10;2.10;;;;;;;26.74;32.48;102223.69;6196120;23;20008;-79
2023/05/28 10:57:12;;;;;;;4.97;2.05;;;;;;;24.91;34.57;102227.63;6221084;23;20058;-78
2023/05/28 10:59:41;;;;;;;3.25;2.22;;;;;;;25.90;34.96;102228.88;6198670;23;20012;-78
2023/05/28 11:02:07;;;;;;;8.07;2.40;;;;;;;27.59;31.64;102233.63;6245819;23;20004;-78
2023/05/28 11:04:34;;;;;;;7.82;2.38;;;;;;;26.99;30.52;102228.78;6220861;23;20138;-78
2023/05/28 11:07:00;;;;;;;4.60;2.30;;;;;;;27.67;30.61;102226.00;6246282;23;20483;-78
2023/05/28 11:09:26;;;;;;;6.32;2.33;;;;;;;29.20;28.81;102230.47;6245021;23;20004;-79
2023/05/28 11:11:53;;;;;;;6.35;2.58;;;;;;;26.94;31.69;102228.72;6195837;23;20012;-78
2023/05/28 11:14:19;;;;;;;5.20;2.38;;;;;;;25.78;32.48;102220.63;6220996;23;20011;-78
2023/05/28 11:16:44;;;;;;;5.60;2.60;;;;;;;27.06;31.88;102220.34;6220578;23;20086;-79
2023/05/28 11:19:12;;;;;;;7.05;2.60;;;;;;;27.86;31.13;102219.06;6220800;23;20079;-78